Time;durP1;ratioP1;P1;durP2;ratioP2;P2;SDS_P1;SDS_P2;PMS_P1;PMS_P2;Temp;Humidity;BMP_temperature;BMP_pressure;BME280_temperature;BME280_humidity;BME280_pressure;Samples;Min_cycle;Max_cycle;Signal;HPM_P1;HPM_P2
2022/10/31 00:00:28;;;;;;;224.70;207.63;;;10.70;26.10;;;;;;5012912;28;20222;-74
2022/10/31 00:02:54;;;;;;;489.83;457.60;;;10.70;26.50;;;;;;5012767;28;20215;-74
2022/10/31 00:05:19;;;;;;;283.70;264.40;;;10.70;26.30;;;;;;5009956;28;20553;-73
2022/10/31 00:07:45;;;;;;;556.20;520.27;;;10.70;26.40;;;;;;4993477;28;20224;-73
2022/10/31 00:10:11;;;;;;;233.67;216.53;;;10.70;26.10;;;;;;4993421;28;20184;-74
2022/10/31 00:12:36;;;;;;;340.17;317.20;;;10.60;26.20;;;;;;5023750;28;20222;-73
2022/10/31 00:15:02;;;;;;;663.33;621.33;;;10.60;26.20;;;;;;4993027;28;20179;-73
2022/10/31 00:17:27;;;;;;;743.33;696.33;;;10.50;26.50;;;;;;4993289;28;20187;-74
2022/10/31 00:19:53;;;;;;;317.77;295.67;;;10.50;26.70;;;;;;4993553;28;20187;-73
2022/10/31 00:22:18;;;;;;;334.33;310.23;;;10.60;26.70;;;;;;4992824;28;20685;-72
2022/10/31 00:24:44;;;;;;;601.17;564.27;;;10.60;26.60;;;;;;4993051;28;20640;-74
2022/10/31 00:27:10;;;;;;;305.10;283.97;;;10.50;26.30;;;;;;4993117;28;20702;-74
2022/10/31 00:29:35;;;;;;;668.20;622.50;;;10.50;26.40;;;;;;4993219;28;20646;-73
2022/10/31 00:32:01;;;;;;;694.07;652.17;;;10.60;26.40;;;;;;4992685;28;20196;-74
2022/10/31 00:34:26;;;;;;;677.20;635.47;;;10.50;26.30;;;;;;5024491;28;20471;-74
2022/10/31 00:36:52;;;;;;;345.53;321.37;;;10.40;27.00;;;;;;4993204;28;20661;-74
2022/10/31 00:39:17;;;;;;;214.33;198.17;;;10.40;27.00;;;;;;4992831;28;20180;-73
2022/10/31 00:41:43;;;;;;;726.77;680.90;;;10.50;27.60;;;;;;4992608;28;20250;-73
2022/10/31 00:44:09;;;;;;;631.17;590.60;;;10.40;27.20;;;;;;4992614;28;20212;-73
2022/10/31 00:46:34;;;;;;;702.30;656.00;;;10.40;30.00;;;;;;4992749;28;20173;-74
2022/10/31 00:49:00;;;;;;;520.03;485.17;;;10.40;29.50;;;;;;4992727;28;20616;-73
2022/10/31 00:51:25;;;;;;;664.57;620.40;;;10.40;30.60;;;;;;4992674;28;20184;-73
2022/10/31 00:53:51;;;;;;;822.23;766.50;;;10.40;30.60;;;;;;4999733;28;20258;-73
2022/10/31 00:56:16;;;;;;;207.17;191.03;;;10.40;29.50;;;;;;5012281;28;20180;-72
2022/10/31 00:58:42;;;;;;;829.60;774.83;;;10.40;28.50;;;;;;5010975;28;20180;-72
2022/10/31 01:01:07;;;;;;;741.17;692.17;;;10.50;28.20;;;;;;5001534;28;20195;-72
2022/10/31 01:03:33;;;;;;;257.67;238.63;;;10.40;28.80;;;;;;4992278;28;20216;-72
2022/10/31 01:06:10;;;;;;;822.23;768.77;;;10.40;29.40;;;;;;4992569;28;20181;-72
2022/10/31 01:08:38;;;;;;;832.33;777.97;;;10.40;29.90;;;;;;4992562;28;20422;-72
2022/10/31 01:11:19;;;;;;;521.37;486.57;;;10.40;29.00;;;;;;4992540;28;20526;-72
2022/10/31 01:13:45;;;;;;;297.67;277.17;;;10.40;28.50;;;;;;4992298;28;20933;-72
2022/10/31 01:16:13;;;;;;;398.67;371.03;;;10.40;27.90;;;;;;4992398;28;20431;-72
2022/10/31 01:18:39;;;;;;;678.93;635.10;;;10.40;28.50;;;;;;4992527;28;20909;-72
2022/10/31 01:21:10;;;;;;;566.07;527.60;;;10.40;28.20;;;;;;4992410;28;20442;-72
2022/10/31 01:23:36;;;;;;;581.00;542.77;;;10.30;28.40;;;;;;4992152;28;20331;-73
2022/10/31 01:26:07;;;;;;;423.47;395.17;;;10.30;28.30;;;;;;4995759;28;20446;-72
2022/10/31 01:28:34;;;;;;;262.70;243.67;;;10.20;28.70;;;;;;4996464;28;20474;-72
2022/10/31 01:31:01;;;;;;;617.63;579.57;;;10.20;29.20;;;;;;4996387;28;20423;-72
2022/10/31 01:33:27;;;;;;;423.00;394.20;;;10.10;29.00;;;;;;4996048;28;20458;-73
2022/10/31 01:35:53;;;;;;;750.77;703.53;;;10.10;32.20;;;;;;4996225;28;20420;-73
2022/10/31 01:38:18;;;;;;;752.77;702.17;;;10.10;31.80;;;;;;4996240;28;20805;-73
2022/10/31 01:40:44;;;;;;;578.57;541.73;;;10.10;31.10;;;;;;4996308;28;20196;-73
2022/10/31 01:43:13;;;;;;;602.67;563.70;;;10.10;32.80;;;;;;4995658;28;20220;-73
2022/10/31 01:45:40;;;;;;;627.60;585.70;;;10.10;31.20;;;;;;4996141;28;20700;-73
2022/10/31 01:48:13;;;;;;;750.13;701.90;;;10.10;32.10;;;;;;5027631;28;20431;-73
2022/10/31 01:50:40;;;;;;;404.03;376.90;;;10.10;32.90;;;;;;4996057;28;20612;-73
2022/10/31 01:53:08;;;;;;;488.90;456.33;;;10.10;32.10;;;;;;4995648;28;20545;-73
2022/10/31 01:55:38;;;;;;;739.30;690.70;;;10.20;32.80;;;;;;4995830;28;20419;-73
2022/10/31 01:58:16;;;;;;;320.17;297.47;;;10.10;32.00;;;;;;4995832;28;20944;-72
2022/10/31 02:00:45;;;;;;;816.67;762.10;;;10.10;32.10;;;;;;4995635;28;20519;-74
2022/10/31 02:03:11;;;;;;;776.83;727.63;;;10.20;32.60;;;;;;4995254;28;20467;-73
2022/10/31 02:05:38;;;;;;;657.90;613.37;;;10.10;31.70;;;;;;5026879;28;20427;-74
2022/10/31 02:08:15;;;;;;;228.63;210.57;;;10.10;31.00;;;;;;4995705;28;20454;-73
2022/10/31 02:10:42;;;;;;;183.20;169.30;;;10.10;32.90;;;;;;4995738;28;20451;-73
2022/10/31 02:13:09;;;;;;;602.30;560.03;;;10.20;34.70;;;;;;4995283;28;20442;-73
2022/10/31 02:15:37;;;;;;;367.53;341.73;;;10.10;33.60;;;;;;4995536;28;20423;-73
2022/10/31 02:18:04;;;;;;;464.97;432.10;;;10.10;32.10;;;;;;5014268;28;20534;-73
2022/10/31 02:20:49;;;;;;;284.30;264.43;;;10.10;31.60;;;;;;5015148;28;20430;-73
2022/10/31 02:23:20;;;;;;;181.97;168.07;;;10.10;32.80;;;;;;5013438;28;20566;-73
2022/10/31 02:26:10;;;;;;;241.27;223.87;;;10.10;31.20;;;;;;5013513;28;20444;-73
2022/10/31 02:28:51;;;;;;;717.43;669.87;;;10.20;35.30;;;;;;5014612;28;20429;-73
2022/10/31 02:31:40;;;;;;;340.17;316.43;;;10.10;35.80;;;;;;5013152;28;20425;-73
2022/10/31 02:34:20;;;;;;;690.50;646.17;;;10.10;34.20;;;;;;5013257;28;20442;-73
2022/10/31 02:36:52;;;;;;;595.53;554.33;;;10.10;32.90;;;;;;5014466;28;20414;-73
2022/10/31 02:39:29;;;;;;;419.53;390.60;;;10.10;34.90;;;;;;5014912;28;20702;-73
2022/10/31 02:42:04;;;;;;;262.90;245.63;;;10.10;34.10;;;;;;5014494;28;20423;-73
2022/10/31 02:44:29;;;;;;;677.73;632.60;;;10.10;32.90;;;;;;5014528;28;20433;-73
2022/10/31 02:47:05;;;;;;;519.00;485.70;;;10.00;33.00;;;;;;5014778;28;20415;-73
2022/10/31 02:50:00;;;;;;;500.07;466.90;;;10.00;34.80;;;;;;5014757;28;20431;-73
2022/10/31 02:52:28;;;;;;;495.33;460.70;;;9.90;36.00;;;;;;5013893;28;20912;-73
2022/10/31 02:54:54;;;;;;;243.67;226.30;;;9.90;35.50;;;;;;5014930;28;20415;-73
2022/10/31 02:57:31;;;;;;;740.63;690.77;;;9.90;37.10;;;;;;5014320;28;20433;-73
2022/10/31 03:00:04;;;;;;;408.43;382.03;;;9.80;38.00;;;;;;5014360;28;20410;-73
2022/10/31 03:02:55;;;;;;;297.67;277.10;;;9.80;37.00;;;;;;5013905;28;20524;-73
2022/10/31 03:05:43;;;;;;;760.83;707.70;;;9.80;37.80;;;;;;5014053;28;20809;-73
2022/10/31 03:08:22;;;;;;;420.47;391.03;;;9.80;36.50;;;;;;5000484;28;20435;-73
2022/10/31 03:11:22;;;;;;;298.30;278.40;;;9.70;35.50;;;;;;4994546;28;20435;-73
2022/10/31 03:14:10;;;;;;;645.87;602.23;;;9.70;37.80;;;;;;4982572;28;20459;-73
2022/10/31 03:16:50;;;;;;;263.93;244.67;;;9.60;37.60;;;;;;4994610;28;20802;-73
2022/10/31 03:19:28;;;;;;;279.60;259.83;;;9.60;36.80;;;;;;4994342;28;20454;-73
2022/10/31 03:22:17;;;;;;;480.77;448.73;;;9.60;35.80;;;;;;4994052;28;20409;-73
2022/10/31 03:24:44;;;;;;;398.93;373.10;;;9.50;35.90;;;;;;4993785;28;20930;-73
2022/10/31 03:27:14;;;;;;;743.97;695.73;;;9.40;35.90;;;;;;5025742;28;20458;-73
2022/10/31 03:29:42;;;;;;;760.03;710.90;;;9.50;36.70;;;;;;4994021;28;20431;-73
2022/10/31 03:32:14;;;;;;;776.57;725.00;;;9.40;37.80;;;;;;4993980;28;20764;-73
2022/10/31 03:34:43;;;;;;;297.40;275.37;;;9.50;38.70;;;;;;4993903;28;20426;-73
2022/10/31 03:37:13;;;;;;;507.17;472.13;;;9.40;38.00;;;;;;4996190;28;20841;-74
2022/10/31 03:39:42;;;;;;;554.47;516.70;;;9.50;39.90;;;;;;4995621;28;20867;-73
2022/10/31 03:42:15;;;;;;;666.43;623.87;;;9.50;38.80;;;;;;4995374;28;20466;-72
2022/10/31 03:44:46;;;;;;;317.77;295.93;;;9.50;39.00;;;;;;5026635;28;20432;-72
2022/10/31 03:47:11;;;;;;;589.73;552.20;;;9.40;40.10;;;;;;4993792;28;20518;-73
2022/10/31 03:49:38;;;;;;;764.73;713.27;;;9.40;40.50;;;;;;4993810;28;20427;-73
2022/10/31 03:52:24;;;;;;;520.70;484.13;;;9.40;40.20;;;;;;4994922;28;20545;-73
2022/10/31 03:55:02;;;;;;;508.07;475.30;;;9.40;40.20;;;;;;5025859;28;20423;-72
2022/10/31 03:57:29;;;;;;;539.43;505.80;;;9.40;40.50;;;;;;4994312;28;20578;-72
2022/10/31 04:00:06;;;;;;;375.43;347.93;;;9.40;41.70;;;;;;4994521;28;20426;-72
2022/10/31 04:02:34;;;;;;;228.03;212.33;;;9.30;41.20;;;;;;4993555;28;20478;-72
2022/10/31 04:05:00;;;;;;;407.83;378.73;;;9.30;37.90;;;;;;4993898;28;20920;-72
2022/10/31 04:07:30;;;;;;;287.23;266.10;;;9.20;37.10;;;;;;5010218;28;20493;-74
2022/10/31 04:09:58;;;;;;;755.73;705.07;;;9.20;36.90;;;;;;5013800;28;20409;-73
2022/10/31 04:12:26;;;;;;;726.77;678.70;;;9.20;38.30;;;;;;5014150;28;20897;-74
2022/10/31 04:14:52;;;;;;;621.43;578.57;;;9.10;39.60;;;;;;4994881;28;20430;-74
2022/10/31 04:17:22;;;;;;;588.83;549.30;;;9.10;40.20;;;;;;4994198;28;20437;-74
2022/10/31 04:19:48;;;;;;;647.50;603.73;;;9.10;40.00;;;;;;5027374;28;20517;-74
2022/10/31 04:22:14;;;;;;;625.07;585.93;;;9.10;41.00;;;;;;4995676;28;20550;-74
2022/10/31 04:24:40;;;;;;;542.30;507.30;;;9.10;41.40;;;;;;5025295;28;20194;-74
2022/10/31 04:27:06;;;;;;;703.93;660.43;;;9.20;41.60;;;;;;4993632;28;20581;-74
2022/10/31 04:29:31;;;;;;;271.13;252.37;;;9.20;41.60;;;;;;4995011;28;20453;-74
2022/10/31 04:31:57;;;;;;;625.47;584.63;;;9.10;41.60;;;;;;4993594;28;20174;-74
2022/10/31 04:34:23;;;;;;;309.73;289.53;;;9.10;41.60;;;;;;5005072;28;20230;-74
2022/10/31 04:36:48;;;;;;;552.03;515.00;;;9.20;42.40;;;;;;5013954;28;20595;-74
2022/10/31 04:39:14;;;;;;;685.73;639.93;;;9.10;42.30;;;;;;5013340;28;20221;-75
2022/10/31 04:41:39;;;;;;;643.83;601.63;;;9.10;42.20;;;;;;5012626;28;20228;-73
2022/10/31 04:44:05;;;;;;;785.33;732.17;;;9.10;42.50;;;;;;5012962;28;20279;-73
2022/10/31 04:46:30;;;;;;;621.47;583.40;;;9.10;41.50;;;;;;5013805;28;20195;-73
2022/10/31 04:48:56;;;;;;;738.80;690.07;;;9.00;41.40;;;;;;5014650;28;20201;-73
2022/10/31 04:51:22;;;;;;;444.77;414.60;;;9.00;41.40;;;;;;5014609;28;20175;-73
2022/10/31 04:53:47;;;;;;;186.77;173.30;;;9.00;41.50;;;;;;5013753;28;20207;-74
2022/10/31 04:56:13;;;;;;;766.90;715.77;;;9.00;41.40;;;;;;5013819;28;20206;-74
2022/10/31 04:58:38;;;;;;;362.90;337.07;;;9.00;40.20;;;;;;4999738;28;20191;-73
2022/10/31 05:01:04;;;;;;;343.10;319.47;;;9.00;40.70;;;;;;4993759;28;20188;-73
2022/10/31 05:03:29;;;;;;;492.50;459.20;;;9.00;40.60;;;;;;4992256;28;20242;-72
2022/10/31 05:05:55;;;;;;;423.53;396.47;;;9.00;40.20;;;;;;4992804;28;20266;-72
2022/10/31 05:08:20;;;;;;;423.17;393.77;;;9.00;40.00;;;;;;4992728;28;20607;-73
2022/10/31 05:10:46;;;;;;;276.17;256.57;;;9.00;40.60;;;;;;4997094;28;20507;-73
2022/10/31 05:13:11;;;;;;;647.43;606.33;;;9.00;40.90;;;;;;4995362;28;20215;-75
2022/10/31 05:15:37;;;;;;;619.77;578.80;;;9.00;41.50;;;;;;4993478;28;20198;-75
2022/10/31 05:18:03;;;;;;;632.43;590.37;;;9.00;40.70;;;;;;4992801;28;20180;-74
2022/10/31 05:20:30;;;;;;;523.40;489.67;;;9.00;40.20;;;;;;4992529;28;20222;-73
2022/10/31 05:22:57;;;;;;;495.43;462.93;;;8.90;41.10;;;;;;5005747;28;20548;-74
2022/10/31 05:25:25;;;;;;;347.07;322.53;;;8.90;39.30;;;;;;5012255;28;20442;-73
2022/10/31 05:27:52;;;;;;;370.97;345.90;;;8.80;39.10;;;;;;5011514;28;20418;-74
2022/10/31 05:30:21;;;;;;;544.90;509.37;;;8.80;39.10;;;;;;5012570;28;20420;-74
2022/10/31 05:32:48;;;;;;;321.63;299.47;;;8.80;39.80;;;;;;5012200;28;20528;-73
2022/10/31 05:35:19;;;;;;;546.23;511.30;;;8.90;41.30;;;;;;5010652;28;20431;-74
2022/10/31 05:37:45;;;;;;;375.83;350.90;;;8.80;42.30;;;;;;5012420;28;20997;-74
2022/10/31 05:40:13;;;;;;;323.33;301.63;;;8.80;42.60;;;;;;5013260;28;20445;-73
2022/10/31 05:42:40;;;;;;;501.93;469.80;;;8.90;43.90;;;;;;5013763;28;20207;-74
2022/10/31 05:45:07;;;;;;;548.60;513.67;;;8.80;43.00;;;;;;5013579;28;20519;-73
2022/10/31 05:47:32;;;;;;;402.63;379.10;;;8.90;43.40;;;;;;4995484;28;20426;-74
2022/10/31 05:49:58;;;;;;;558.70;522.23;;;8.80;43.20;;;;;;4993551;28;20442;-74
2022/10/31 05:52:23;;;;;;;309.37;288.87;;;8.90;43.50;;;;;;4994102;28;20187;-74
2022/10/31 05:54:49;;;;;;;701.50;659.00;;;8.90;42.80;;;;;;4992901;28;20191;-74
2022/10/31 05:57:14;;;;;;;553.03;519.70;;;8.80;41.30;;;;;;4995124;28;20186;-73
2022/10/31 05:59:40;;;;;;;715.37;670.20;;;8.90;43.10;;;;;;5007427;28;20224;-71
2022/10/31 06:02:05;;;;;;;538.83;503.53;;;8.90;43.90;;;;;;5011406;28;20202;-72
2022/10/31 06:04:31;;;;;;;826.27;773.70;;;8.90;43.30;;;;;;5011493;28;20207;-72
2022/10/31 06:06:57;;;;;;;710.20;666.60;;;8.80;43.30;;;;;;5011533;28;20207;-72
2022/10/31 06:09:22;;;;;;;745.73;699.57;;;8.80;42.90;;;;;;5011672;28;20253;-71
2022/10/31 06:11:48;;;;;;;716.40;672.23;;;8.90;43.90;;;;;;4992467;28;20514;-71
2022/10/31 06:14:13;;;;;;;539.40;508.97;;;8.90;42.80;;;;;;4995392;28;20201;-71
2022/10/31 06:16:39;;;;;;;305.03;283.80;;;8.90;42.50;;;;;;5026945;28;20211;-71
2022/10/31 06:19:05;;;;;;;591.23;553.20;;;8.90;43.00;;;;;;4995460;28;20261;-71
2022/10/31 06:21:30;;;;;;;746.67;697.90;;;8.90;42.90;;;;;;4997415;28;20171;-75
2022/10/31 06:23:56;;;;;;;444.17;415.13;;;9.00;43.20;;;;;;5015954;28;20206;-72
2022/10/31 06:26:21;;;;;;;392.67;366.73;;;9.00;44.00;;;;;;5014414;28;20734;-74
2022/10/31 06:28:47;;;;;;;737.47;686.87;;;9.00;43.60;;;;;;5015390;28;20178;-74
2022/10/31 06:31:12;;;;;;;641.13;597.90;;;9.00;44.00;;;;;;5015353;28;20183;-74
2022/10/31 06:33:40;;;;;;;481.77;449.97;;;9.10;42.40;;;;;;5014208;28;20207;-73
2022/10/31 06:36:06;;;;;;;791.53;739.97;;;9.10;41.60;;;;;;4996920;28;20229;-72
2022/10/31 06:38:31;;;;;;;509.67;475.43;;;9.10;41.50;;;;;;5015016;28;20413;-75
2022/10/31 06:40:57;;;;;;;821.63;766.63;;;9.10;40.40;;;;;;5011310;28;20674;-75
2022/10/31 06:43:22;;;;;;;368.37;343.47;;;9.20;40.40;;;;;;5004104;28;20569;-75
2022/10/31 06:45:48;;;;;;;700.10;655.23;;;9.20;40.30;;;;;;4997193;28;20234;-73
2022/10/31 06:48:13;;;;;;;385.00;357.57;;;9.20;39.50;;;;;;4995118;28;20260;-75
2022/10/31 06:50:39;;;;;;;571.77;532.47;;;9.30;41.40;;;;;;4995559;28;20204;-75
2022/10/31 06:53:05;;;;;;;704.03;657.80;;;9.30;40.20;;;;;;5009271;28;20246;-73
2022/10/31 06:55:30;;;;;;;531.23;493.33;;;9.40;38.90;;;;;;5014589;28;20194;-74
2022/10/31 06:57:58;;;;;;;818.33;762.93;;;9.40;39.40;;;;;;5014592;28;20592;-74
2022/10/31 07:00:25;;;;;;;762.07;709.43;;;9.40;37.70;;;;;;5014690;28;20190;-74
2022/10/31 07:02:55;;;;;;;258.57;239.37;;;9.40;37.80;;;;;;5012586;28;20517;-73
2022/10/31 07:05:21;;;;;;;416.23;386.60;;;9.50;36.70;;;;;;5000001;28;20430;-74
2022/10/31 07:07:47;;;;;;;616.50;573.37;;;9.60;35.00;;;;;;5026173;28;20916;-75
2022/10/31 07:10:12;;;;;;;762.30;708.27;;;9.70;35.10;;;;;;4994730;28;20198;-75
2022/10/31 07:12:38;;;;;;;754.30;702.13;;;9.70;35.60;;;;;;4994883;28;20257;-74
2022/10/31 07:15:04;;;;;;;381.33;353.87;;;9.80;35.00;;;;;;4995017;28;20188;-74
2022/10/31 07:17:30;;;;;;;319.27;297.07;;;9.90;34.60;;;;;;5009495;28;20238;-74
2022/10/31 07:19:56;;;;;;;427.93;398.47;;;10.10;33.90;;;;;;5013264;28;20436;-74
2022/10/31 07:22:21;;;;;;;528.67;491.10;;;10.20;34.20;;;;;;5013777;28;20820;-74
2022/10/31 07:24:50;;;;;;;757.20;704.30;;;10.30;32.60;;;;;;5014964;28;20635;-77
2022/10/31 07:27:15;;;;;;;719.47;668.47;;;10.40;31.30;;;;;;5004738;28;20165;-70
2022/10/31 07:29:43;;;;;;;516.60;480.63;;;10.40;31.30;;;;;;4995768;28;20430;-71
2022/10/31 07:32:09;;;;;;;867.10;807.00;;;10.50;31.40;;;;;;4994534;28;20243;-73
2022/10/31 07:34:34;;;;;;;858.67;799.67;;;10.60;31.50;;;;;;4993345;28;20454;-73
2022/10/31 07:37:00;;;;;;;859.57;801.03;;;10.80;30.90;;;;;;4994485;28;20180;-73
2022/10/31 07:39:25;;;;;;;715.83;665.37;;;10.90;30.60;;;;;;4992979;28;20276;-73
2022/10/31 07:41:51;;;;;;;727.47;677.43;;;11.00;30.50;;;;;;4993989;28;20185;-73
2022/10/31 07:44:16;;;;;;;869.53;811.23;;;11.20;29.60;;;;;;4993981;28;20567;-73
2022/10/31 07:46:42;;;;;;;479.53;445.73;;;11.30;29.00;;;;;;4994001;28;20521;-72
2022/10/31 07:49:10;;;;;;;818.73;762.17;;;11.40;28.40;;;;;;4994525;28;20173;-72
2022/10/31 07:51:36;;;;;;;679.97;633.77;;;11.60;27.80;;;;;;4994543;28;20173;-72
2022/10/31 07:54:01;;;;;;;349.63;323.90;;;11.80;26.90;;;;;;4994494;28;20885;-73
2022/10/31 07:56:27;;;;;;;348.43;322.10;;;11.90;26.40;;;;;;4994570;28;20203;-72
2022/10/31 07:58:52;;;;;;;470.70;436.20;;;12.00;24.60;;;;;;4994730;28;20207;-74
2022/10/31 08:01:18;;;;;;;575.03;533.57;;;12.10;24.00;;;;;;4993193;28;20213;-72
2022/10/31 08:03:43;;;;;;;802.57;747.53;;;11.90;23.90;;;;;;4994265;28;20605;-72
2022/10/31 08:06:09;;;;;;;543.60;505.07;;;11.80;24.40;;;;;;4994063;28;20169;-71
2022/10/31 08:08:37;;;;;;;260.07;239.00;;;12.00;24.80;;;;;;4994005;28;20195;-73
2022/10/31 08:11:02;;;;;;;383.93;355.37;;;12.00;24.20;;;;;;4994186;28;20288;-75
2022/10/31 08:13:28;;;;;;;391.47;361.40;;;12.10;23.90;;;;;;4994124;28;20436;-72
2022/10/31 08:15:54;;;;;;;720.27;670.67;;;12.30;23.10;;;;;;4994075;28;20175;-73
2022/10/31 08:18:21;;;;;;;412.00;382.50;;;12.50;22.80;;;;;;4998214;28;20207;-73
2022/10/31 08:20:47;;;;;;;516.80;478.57;;;12.50;23.80;;;;;;5013615;28;20414;-73
2022/10/31 08:23:13;;;;;;;450.13;416.70;;;12.70;22.00;;;;;;5013332;28;20467;-73
2022/10/31 08:25:39;;;;;;;805.70;747.10;;;12.70;21.60;;;;;;5013889;28;20195;-72
2022/10/31 08:28:06;;;;;;;91.37;81.40;;;12.80;21.90;;;;;;4994879;28;20429;-74
2022/10/31 08:30:35;;;;;;;382.03;352.80;;;13.00;20.70;;;;;;4993911;28;20408;-74
2022/10/31 08:33:04;;;;;;;279.83;257.33;;;13.20;21.10;;;;;;4993487;28;20460;-73
2022/10/31 08:35:32;;;;;;;582.10;538.73;;;13.40;20.70;;;;;;4993273;28;20417;-73
2022/10/31 08:37:58;;;;;;;651.37;603.47;;;13.60;20.40;;;;;;4996414;28;20831;-71
2022/10/31 08:40:25;;;;;;;290.80;266.33;;;13.80;19.10;;;;;;5007677;28;20925;-72
2022/10/31 08:43:02;;;;;;;375.70;345.40;;;14.00;19.00;;;;;;4993789;28;20778;-72
2022/10/31 08:45:30;;;;;;;313.80;288.40;;;14.20;17.80;;;;;;4994752;28;20396;-71
2022/10/31 08:48:06;;;;;;;503.77;465.17;;;14.20;17.30;;;;;;4991853;28;20431;-71
2022/10/31 08:50:34;;;;;;;832.10;765.83;;;14.20;17.90;;;;;;4980672;28;20462;-73
2022/10/31 08:53:04;;;;;;;712.53;658.27;;;14.30;17.80;;;;;;4992080;28;20446;-71
2022/10/31 08:55:35;;;;;;;680.93;627.17;;;14.40;17.80;;;;;;4978886;28;20962;-72
2022/10/31 08:58:02;;;;;;;444.37;411.20;;;14.60;17.20;;;;;;4973882;28;20429;-72
2022/10/31 09:00:27;;;;;;;651.97;601.50;;;14.70;16.60;;;;;;4986586;28;20435;-72
2022/10/31 09:03:01;;;;;;;825.67;761.73;;;14.90;16.60;;;;;;4992794;28;20533;-72
2022/10/31 09:05:27;;;;;;;809.57;743.80;;;15.00;16.80;;;;;;4993162;28;20235;-74
2022/10/31 09:08:01;;;;;;;661.20;609.47;;;15.20;16.10;;;;;;5024901;28;20776;-71
2022/10/31 09:10:28;;;;;;;333.87;307.70;;;15.30;15.70;;;;;;5005014;28;20526;-73
2022/10/31 09:12:58;;;;;;;684.00;628.00;;;15.50;15.20;;;;;;5012263;28;20916;-73
2022/10/31 09:15:25;;;;;;;327.20;301.43;;;15.70;14.10;;;;;;5012125;28;20419;-74
2022/10/31 09:17:50;;;;;;;702.07;644.97;;;15.80;14.10;;;;;;5012229;28;20434;-73
2022/10/31 09:20:16;;;;;;;467.70;433.10;;;15.90;14.20;;;;;;5012219;28;20419;-74
2022/10/31 09:22:42;;;;;;;341.17;316.70;;;16.10;14.10;;;;;;5012141;28;20250;-73
2022/10/31 09:25:08;;;;;;;553.50;509.87;;;16.30;14.00;;;;;;4999877;28;20196;-73
2022/10/31 09:27:33;;;;;;;426.07;394.50;;;16.30;13.50;;;;;;4992429;28;20172;-74
2022/10/31 09:29:59;;;;;;;579.87;535.30;;;16.20;13.20;;;;;;5001009;28;20444;-72
2022/10/31 09:32:24;;;;;;;468.50;431.07;;;16.50;12.70;;;;;;5005162;28;20705;-73
2022/10/31 09:34:50;;;;;;;705.53;652.23;;;16.70;12.50;;;;;;4992164;28;20271;-73
2022/10/31 09:37:16;;;;;;;372.90;345.27;;;16.70;11.40;;;;;;5016122;23;20442;-71
2022/10/31 09:39:41;;;;;;;760.80;697.80;;;16.80;11.80;;;;;;4992040;28;20525;-71
2022/10/31 09:42:34;;;;;;;430.93;396.93;;;16.90;11.90;;;;;;4991596;28;20515;-71
2022/10/31 09:45:12;;;;;;;599.80;549.03;;;17.20;11.80;;;;;;4976434;28;20170;-71
2022/10/31 09:47:40;;;;;;;438.13;405.17;;;17.40;12.00;;;;;;4988857;28;20467;-71
2022/10/31 09:50:11;;;;;;;950.60;868.83;;;17.60;11.00;;;;;;4976468;28;20412;-71
2022/10/31 09:52:40;;;;;;;921.57;841.77;;;17.60;11.10;;;;;;4976099;28;20466;-71
2022/10/31 09:55:13;;;;;;;472.83;435.97;;;17.70;10.90;;;;;;4976448;28;20555;-71
2022/10/31 09:57:41;;;;;;;938.97;861.00;;;17.70;11.30;;;;;;4976411;28;20479;-71
2022/10/31 10:00:14;;;;;;;779.20;713.57;;;17.90;11.10;;;;;;4977402;28;20436;-71
2022/10/31 10:02:59;;;;;;;299.80;276.73;;;18.00;9.70;;;;;;4991471;28;20451;-71
2022/10/31 10:05:36;;;;;;;512.80;470.70;;;18.10;9.90;;;;;;4995599;28;20411;-71
2022/10/31 10:08:14;;;;;;;529.17;486.73;;;18.30;9.20;;;;;;4994445;28;20416;-71
2022/10/31 10:10:46;;;;;;;811.27;744.77;;;18.40;9.20;;;;;;4994715;28;20511;-71
2022/10/31 10:13:40;;;;;;;184.87;171.63;;;18.60;8.50;;;;;;4994731;28;20863;-71
2022/10/31 10:16:32;;;;;;;494.07;456.53;;;18.60;8.50;;;;;;4980400;28;20825;-72
2022/10/31 10:19:21;;;;;;;827.50;758.60;;;18.60;8.30;;;;;;4976352;28;20758;-71
2022/10/31 10:22:17;;;;;;;526.17;483.27;;;18.70;8.70;;;;;;4979137;28;20412;-72
2022/10/31 10:25:15;;;;;;;688.33;632.83;;;18.80;8.30;;;;;;4977093;28;20432;-71
2022/10/31 10:28:08;;;;;;;760.80;701.80;;;18.80;8.00;;;;;;4975652;28;20492;-71
2022/10/31 10:30:46;;;;;;;418.10;387.97;;;18.60;8.00;;;;;;4975251;28;20424;-72
2022/10/31 10:33:22;;;;;;;1031.10;938.33;;;18.90;7.80;;;;;;4975564;28;20412;-71
2022/10/31 10:35:53;;;;;;;645.87;592.67;;;19.20;7.90;;;;;;4975530;28;20929;-71
2022/10/31 10:38:39;;;;;;;905.80;829.47;;;19.50;7.80;;;;;;4975668;28;20415;-72
2022/10/31 10:41:11;;;;;;;857.93;785.67;;;19.60;7.30;;;;;;4975646;28;20730;-72
2022/10/31 10:43:37;;;;;;;808.93;741.00;;;19.80;7.40;;;;;;4975266;28;20970;-71
2022/10/31 10:49:26;;;;;;;581.17;537.40;;;20.10;6.20;;;;;;4975780;28;20418;-72
2022/10/31 10:52:11;;;;;;;644.23;596.77;;;20.00;6.30;;;;;;4975309;28;20409;-72
2022/10/31 10:54:42;;;;;;;706.33;655.50;;;19.80;7.40;;;;;;4975454;28;20409;-72
2022/10/31 10:57:32;;;;;;;708.93;656.57;;;19.80;7.40;;;;;;4974881;28;20428;-71
2022/10/31 11:00:01;;;;;;;787.60;725.80;;;19.80;7.40;;;;;;4975654;28;20404;-71
2022/10/31 11:02:31;;;;;;;505.13;469.13;;;20.10;7.50;;;;;;4974522;28;20459;-71
2022/10/31 11:04:59;;;;;;;645.27;598.00;;;20.10;7.10;;;;;;4975166;28;20406;-71
2022/10/31 11:07:36;;;;;;;728.53;669.87;;;20.10;6.70;;;;;;4974972;28;20533;-71
2022/10/31 11:10:12;;;;;;;626.93;580.93;;;20.30;6.30;;;;;;4975321;28;20428;-71
2022/10/31 11:12:39;;;;;;;755.27;695.50;;;20.40;6.20;;;;;;4975447;28;20428;-71
2022/10/31 11:15:22;;;;;;;395.83;366.73;;;20.40;6.10;;;;;;4973672;28;20491;-71
2022/10/31 11:17:51;;;;;;;789.63;729.43;;;20.40;5.70;;;;;;4975008;28;20516;-71
2022/10/31 11:20:24;;;;;;;716.10;664.17;;;20.30;5.90;;;;;;4974818;28;20417;-71
2022/10/31 11:23:00;;;;;;;663.90;616.10;;;20.30;6.60;;;;;;4974463;28;20796;-71
2022/10/31 11:25:27;;;;;;;916.60;843.60;;;20.40;6.30;;;;;;4972500;28;20404;-71
2022/10/31 11:27:59;;;;;;;607.03;563.90;;;20.50;5.80;;;;;;4977229;28;20897;-72
2022/10/31 11:30:24;;;;;;;798.20;736.93;;;20.50;5.60;;;;;;4956122;28;20413;-73
2022/10/31 11:32:52;;;;;;;702.53;650.77;;;20.50;6.00;;;;;;4954307;29;20429;-72
2022/10/31 11:35:19;;;;;;;684.53;633.60;;;20.40;6.20;;;;;;4953954;28;20181;-69
2022/10/31 11:37:47;;;;;;;789.87;731.70;;;20.60;6.00;;;;;;4959287;28;20447;-72
2022/10/31 11:40:31;;;;;;;646.23;599.83;;;20.70;5.40;;;;;;4972734;28;20431;-72
2022/10/31 11:42:59;;;;;;;693.73;638.73;;;20.60;4.70;;;;;;4974397;28;20555;-71
2022/10/31 11:45:33;;;;;;;555.87;517.10;;;20.60;5.30;;;;;;4974376;28;20421;-71
2022/10/31 11:48:00;;;;;;;788.90;730.63;;;20.70;4.90;;;;;;4974036;28;20408;-70
2022/10/31 11:50:32;;;;;;;760.00;703.47;;;20.40;5.40;;;;;;4972929;28;20412;-71
2022/10/31 11:52:58;;;;;;;820.13;758.47;;;20.50;4.90;;;;;;4973879;28;20830;-71
2022/10/31 11:55:39;;;;;;;322.17;303.87;;;20.40;5.10;;;;;;4972788;28;20479;-71
2022/10/31 11:58:19;;;;;;;812.40;751.23;;;20.40;6.00;;;;;;4974202;28;20180;-71
2022/10/31 12:00:49;;;;;;;892.40;824.07;;;20.40;5.50;;;;;;4972879;28;20503;-72
2022/10/31 12:03:37;;;;;;;730.13;675.47;;;20.40;6.40;;;;;;4973772;28;20456;-71
2022/10/31 12:06:08;;;;;;;654.57;607.50;;;20.20;6.00;;;;;;4974217;28;20475;-72
2022/10/31 12:08:36;;;;;;;875.13;806.17;;;20.20;6.00;;;;;;4973518;28;20413;-71
2022/10/31 12:11:30;;;;;;;493.40;460.07;;;20.40;6.50;;;;;;4973522;28;20508;-72
2022/10/31 12:14:12;;;;;;;791.10;731.00;;;20.10;6.30;;;;;;4972463;28;20413;-72
2022/10/31 12:17:06;;;;;;;863.40;795.63;;;20.00;6.30;;;;;;4973885;28;20435;-72
2022/10/31 12:19:42;;;;;;;826.00;763.17;;;20.10;6.80;;;;;;4973765;28;20419;-72
2022/10/31 12:22:20;;;;;;;944.17;870.07;;;20.10;6.80;;;;;;4973477;28;20940;-72
2022/10/31 12:25:07;;;;;;;862.93;796.40;;;20.10;6.60;;;;;;4972689;28;20783;-71
2022/10/31 12:28:02;;;;;;;853.27;788.43;;;20.10;7.00;;;;;;4972267;28;20807;-71
2022/10/31 12:30:31;;;;;;;985.83;907.13;;;20.10;7.20;;;;;;4972485;28;20434;-72